createdAt,value
2018-12-20T00:03:12.584Z,21.02
2018-12-20T00:08:16.016Z,21.09
2018-12-20T00:13:19.400Z,21.02
2018-12-20T00:18:22.977Z,21.00
2018-12-20T00:23:26.312Z,21.06
2018-12-20T00:28:29.593Z,21.00
2018-12-20T00:33:32.885Z,21.07
2018-12-20T00:38:36.331Z,21.00
2018-12-20T00:43:39.660Z,21.07
2018-12-20T00:48:42.986Z,21.04
2018-12-20T00:53:46.336Z,21.01
2018-12-20T00:58:49.745Z,20.99
2018-12-20T01:03:53.239Z,20.99
2018-12-20T01:08:56.621Z,21.00
2018-12-20T01:13:59.894Z,21.00
2018-12-20T01:19:03.273Z,20.98
2018-12-20T01:24:06.714Z,20.95
2018-12-20T01:29:10.080Z,20.93
2018-12-20T01:34:13.498Z,20.95
2018-12-20T01:39:16.868Z,20.92
2018-12-20T01:44:20.293Z,20.92
2018-12-20T01:49:23.801Z,20.92
2018-12-20T01:54:27.115Z,20.89
2018-12-20T01:59:30.566Z,20.90
2018-12-20T02:04:34.039Z,20.88
2018-12-20T02:09:37.468Z,20.88
2018-12-20T02:14:40.963Z,20.86
2018-12-20T02:19:44.326Z,20.88
2018-12-20T02:24:47.782Z,20.94
2018-12-20T02:29:51.217Z,20.94
2018-12-20T02:34:54.679Z,20.94
2018-12-20T02:39:58.042Z,20.90
2018-12-20T02:45:01.376Z,20.86
2018-12-20T02:50:06.751Z,20.83
2018-12-20T02:55:10.033Z,20.80
2018-12-20T03:00:13.644Z,20.78
2018-12-20T03:05:17.253Z,20.77
2018-12-20T03:10:20.792Z,20.74
2018-12-20T03:15:24.100Z,20.71
2018-12-20T03:20:27.373Z,20.66
2018-12-20T03:25:30.646Z,20.63
2018-12-20T03:30:33.966Z,20.66
2018-12-20T03:35:37.252Z,20.72
2018-12-20T03:40:40.577Z,20.81
2018-12-20T03:45:44.083Z,20.79
2018-12-20T03:50:47.495Z,20.77
2018-12-20T03:55:50.917Z,20.72
2018-12-20T04:00:54.269Z,20.66
2018-12-20T04:05:57.832Z,20.64
2018-12-20T04:11:01.479Z,20.61
2018-12-20T04:16:04.996Z,20.58
2018-12-20T04:21:08.402Z,20.56
2018-12-20T04:26:11.793Z,20.51
2018-12-20T04:31:15.077Z,20.50
2018-12-20T04:36:18.568Z,20.48
2018-12-20T04:41:22.002Z,20.46
2018-12-20T04:46:25.490Z,20.50
2018-12-20T04:51:28.830Z,20.61
2018-12-20T04:56:32.204Z,20.69
2018-12-20T05:01:35.637Z,20.70
2018-12-20T05:06:39.038Z,20.69
2018-12-20T05:11:42.519Z,20.65
2018-12-20T05:16:46.044Z,20.60
2018-12-20T05:21:49.460Z,20.59
2018-12-20T05:26:52.866Z,20.55
2018-12-20T05:31:56.333Z,20.53
2018-12-20T05:36:59.778Z,20.48
2018-12-20T05:42:03.577Z,20.48
2018-12-20T05:47:07.029Z,20.47
2018-12-20T05:52:10.319Z,20.42
2018-12-20T05:57:13.700Z,20.41
2018-12-20T06:02:17.162Z,20.36
2018-12-20T06:07:20.530Z,20.34
2018-12-20T06:12:23.941Z,20.32
2018-12-20T06:17:27.543Z,20.39
2018-12-20T06:22:30.944Z,20.54
2018-12-20T06:27:34.466Z,20.64
2018-12-20T06:32:37.767Z,20.65
2018-12-20T06:37:41.068Z,20.62
2018-12-20T06:42:44.357Z,20.59
2018-12-20T06:47:47.644Z,20.53
2018-12-20T06:52:50.928Z,20.49
2018-12-20T06:57:54.218Z,20.45
2018-12-20T07:02:57.588Z,20.40
2018-12-20T07:08:00.873Z,20.38
2018-12-20T07:13:05.430Z,20.35
2018-12-20T07:18:08.910Z,20.31
2018-12-20T07:23:12.205Z,20.28
2018-12-20T07:28:15.572Z,20.25
2018-12-20T07:33:18.865Z,20.23
2018-12-20T07:38:22.148Z,20.24
2018-12-20T07:43:25.450Z,20.33
2018-12-20T07:48:32.271Z,20.48
2018-12-20T07:53:34.064Z,20.55
2018-12-20T07:58:37.344Z,20.56
2018-12-20T08:03:40.675Z,16.93
2018-12-20T08:08:44.016Z,14.85
2018-12-20T08:13:47.292Z,14.94
2018-12-20T08:18:50.575Z,17.96
2018-12-20T08:23:53.873Z,19.25
2018-12-20T08:28:57.161Z,19.84
2018-12-20T08:34:00.453Z,20.23
2018-12-20T08:39:08.502Z,20.41
2018-12-20T08:44:11.778Z,20.43
2018-12-20T08:49:15.057Z,20.43
2018-12-20T08:59:27.929Z,20.29
2018-12-20T09:04:31.236Z,20.29
2018-12-20T09:09:34.821Z,20.20
2018-12-20T09:14:38.133Z,20.15
2018-12-20T09:19:41.428Z,20.14
2018-12-20T09:24:44.719Z,20.01
2018-12-20T09:29:48.008Z,20.03
2018-12-20T09:34:51.280Z,20.10
2018-12-20T09:39:54.573Z,20.12
2018-12-20T09:44:57.889Z,20.21
2018-12-20T09:50:01.181Z,20.24
2018-12-20T09:55:04.730Z,20.25
2018-12-20T10:00:09.894Z,20.32
2018-12-20T10:05:13.172Z,20.39
2018-12-20T10:10:16.465Z,20.37
2018-12-20T10:15:19.759Z,20.44
2018-12-20T10:20:23.093Z,20.52
2018-12-20T10:25:26.381Z,20.57
2018-12-20T10:30:29.668Z,20.76
2018-12-20T10:35:32.969Z,20.83
2018-12-20T10:40:36.274Z,20.81
2018-12-20T10:45:39.586Z,20.69
2018-12-20T10:50:42.882Z,20.70
2018-12-20T10:55:46.157Z,20.80
2018-12-20T11:00:54.915Z,20.68
2018-12-20T11:06:04.255Z,20.69
2018-12-20T11:11:09.504Z,20.66
2018-12-20T11:16:12.797Z,20.66
2018-12-20T11:21:16.296Z,20.67
2018-12-20T11:26:19.605Z,20.80
2018-12-20T11:31:22.913Z,20.86
2018-12-20T11:36:26.221Z,20.85
2018-12-20T11:41:29.737Z,20.85
2018-12-20T11:46:33.020Z,20.88
2018-12-20T11:51:36.321Z,20.85
2018-12-20T11:56:39.628Z,20.83
2018-12-20T12:01:42.918Z,20.91
2018-12-20T12:06:46.637Z,20.91
2018-12-20T12:11:49.948Z,20.89
2018-12-20T12:16:53.245Z,20.92
2018-12-20T12:21:56.555Z,21.08
2018-12-20T12:26:59.844Z,20.93
2018-12-20T12:32:03.154Z,20.91
2018-12-20T12:37:06.544Z,20.89
2018-12-20T12:42:09.918Z,20.92
2018-12-20T12:47:13.219Z,20.91
2018-12-20T12:52:16.509Z,20.92
2018-12-20T12:57:22.155Z,20.88
2018-12-20T13:02:25.127Z,20.87
2018-12-20T13:07:28.445Z,20.88
2018-12-20T13:12:31.753Z,20.89
2018-12-20T13:17:35.045Z,20.85
2018-12-20T13:22:38.339Z,20.87
2018-12-20T13:27:41.650Z,20.91
2018-12-20T13:32:44.969Z,20.88
2018-12-20T13:37:48.414Z,20.87
2018-12-20T13:42:51.787Z,20.86
2018-12-20T13:47:55.140Z,20.88
2018-12-20T13:52:59.009Z,20.90
2018-12-20T13:58:02.366Z,20.92
2018-12-20T14:03:05.748Z,20.87
2018-12-20T14:08:09.174Z,20.87
2018-12-20T14:13:12.483Z,20.94
2018-12-20T14:18:15.799Z,21.00
2018-12-20T14:23:19.177Z,20.98
2018-12-20T14:28:22.524Z,21.04
2018-12-20T14:33:25.822Z,21.03
2018-12-20T14:38:29.113Z,21.02
2018-12-20T14:43:32.412Z,21.03
2018-12-20T14:48:39.551Z,21.02
2018-12-20T14:53:41.185Z,21.04
2018-12-20T14:58:44.666Z,21.02
2018-12-20T15:03:48.039Z,21.04
2018-12-20T15:08:51.386Z,21.15
2018-12-20T15:13:54.746Z,21.01
2018-12-20T15:18:58.076Z,21.01
2018-12-20T15:24:01.460Z,20.98
2018-12-20T15:29:04.957Z,21.01
2018-12-20T15:34:08.328Z,20.99
2018-12-20T15:39:12.025Z,21.02
2018-12-20T15:44:15.342Z,21.02
2018-12-20T15:49:18.665Z,21.03
2018-12-20T15:54:21.961Z,21.01
2018-12-20T15:59:25.856Z,21.03
2018-12-20T16:04:29.706Z,21.06
2018-12-20T16:09:33.209Z,21.03
2018-12-20T16:14:36.624Z,21.06
2018-12-20T16:19:39.919Z,21.03
2018-12-20T16:24:43.216Z,21.04
2018-12-20T16:29:46.548Z,21.09
2018-12-20T16:34:49.872Z,21.10
2018-12-20T16:39:53.212Z,21.10
2018-12-20T16:44:56.612Z,21.15
2018-12-20T16:49:59.926Z,21.16
2018-12-20T16:55:03.341Z,21.19
2018-12-20T17:00:08.642Z,21.19
2018-12-20T17:05:12.002Z,21.17
2018-12-20T17:10:15.376Z,21.20
2018-12-20T17:15:18.706Z,21.24
2018-12-20T17:20:22.009Z,21.34
2018-12-20T17:25:25.321Z,21.32
2018-12-20T17:30:28.698Z,21.34
2018-12-20T17:35:32.000Z,21.34
2018-12-20T17:40:35.328Z,21.36
2018-12-20T17:45:38.634Z,21.37
2018-12-20T17:50:41.944Z,21.36
2018-12-20T17:55:45.257Z,21.36
2018-12-20T18:00:48.592Z,21.45
2018-12-20T18:05:51.951Z,21.41
2018-12-20T18:10:55.248Z,21.34
2018-12-20T18:15:58.735Z,21.29
2018-12-20T18:21:02.154Z,21.26
2018-12-20T18:26:07.278Z,21.22
2018-12-20T18:31:12.319Z,21.25
2018-12-20T18:36:17.656Z,21.20
2018-12-20T18:41:22.709Z,21.18
2018-12-20T18:46:29.125Z,21.17
2018-12-20T18:51:32.469Z,21.25
2018-12-20T18:56:35.780Z,21.16
2018-12-20T19:01:39.083Z,21.21
2018-12-20T19:06:42.389Z,21.19
2018-12-20T19:11:45.709Z,21.21
2018-12-20T19:16:49.078Z,21.18
2018-12-20T19:21:53.005Z,21.25
2018-12-20T19:26:56.294Z,21.14
2018-12-20T19:31:59.649Z,21.19
2018-12-20T19:37:03.133Z,21.15
2018-12-20T19:42:11.866Z,21.20
2018-12-20T19:47:16.809Z,21.10
2018-12-20T19:52:21.966Z,21.22
2018-12-20T19:57:27.228Z,21.22
2018-12-20T20:02:32.381Z,21.22
2018-12-20T20:07:37.732Z,21.25
2018-12-20T20:12:42.798Z,21.22
2018-12-20T20:17:47.837Z,21.25
2018-12-20T20:22:52.782Z,21.19
2018-12-20T20:27:57.890Z,21.20
2018-12-20T20:33:01.206Z,21.15
2018-12-20T20:38:04.502Z,21.16
2018-12-20T20:43:07.806Z,21.16
2018-12-20T20:48:11.126Z,21.19
2018-12-20T20:53:14.494Z,21.12
2018-12-20T20:58:17.793Z,21.22
2018-12-20T21:03:21.104Z,21.19
2018-12-20T21:08:24.404Z,21.19
2018-12-20T21:13:27.824Z,21.15
2018-12-20T21:18:31.124Z,21.20
2018-12-20T21:23:34.422Z,21.13
2018-12-20T21:28:37.732Z,21.13
2018-12-20T21:33:41.034Z,21.14
2018-12-20T21:38:44.325Z,21.07
2018-12-20T21:43:47.613Z,21.08
2018-12-20T21:48:50.909Z,21.03
2018-12-20T21:53:55.027Z,21.14
2018-12-20T21:58:58.645Z,21.11
2018-12-20T22:04:01.934Z,21.02
2018-12-20T22:09:06.855Z,21.03
2018-12-20T22:14:10.212Z,21.01
2018-12-20T22:19:13.586Z,21.04
2018-12-20T22:24:16.888Z,21.01
2018-12-20T22:29:20.177Z,21.01
2018-12-20T22:34:23.465Z,21.01
2018-12-20T22:39:26.797Z,21.01
2018-12-20T22:44:30.093Z,21.02
2018-12-20T22:49:33.398Z,21.03
2018-12-20T22:54:36.694Z,21.02
2018-12-20T22:59:39.984Z,21.02
2018-12-20T23:04:43.277Z,21.02
2018-12-20T23:09:46.598Z,21.02
2018-12-20T23:14:49.927Z,21.15
2018-12-20T23:19:53.257Z,21.13
2018-12-20T23:24:56.591Z,21.00
2018-12-20T23:29:59.914Z,21.02
2018-12-20T23:35:03.424Z,21.04
2018-12-20T23:40:06.764Z,21.02
2018-12-20T23:45:10.097Z,20.99
2018-12-20T23:50:14.580Z,21.01
2018-12-20T23:55:17.908Z,21.01
